Terminal Aerodrome Forecast
Issued by NWS

Home | Current Version | Previous Version | Graphics & Text | Print | Product List | Glossary On
Versions: 1 2 3 4 5 6 7 8 9 10 11 12 13 14 15 16
000
FTUS43 KIWX 282300
TAFSBN
TAF
KSBN 282336Z 2900/2924 13008KT P6SM FEW040 BKN250
     FM290200 11005KT P6SM VCSH SCT060 BKN120
     FM291400 15010KT P6SM SCT050 BKN100=

USA.gov is the U.S. government's official web portal to all federal, state and local government web resources and services.